sensor_id;sensor_type;location;lat;lon;timestamp;P1;durP1;ratioP1;P2;durP2;ratioP2
20454;SDS011;10386;54.314;10.022;2023-04-01T00:01:19;23.83;;;10.10;;
20454;SDS011;10386;54.314;10.022;2023-04-01T00:03:46;27.47;;;10.67;;
20454;SDS011;10386;54.314;10.022;2023-04-01T00:06:14;23.97;;;10.47;;
20454;SDS011;10386;54.314;10.022;2023-04-01T00:08:43;19.87;;;10.03;;
20454;SDS011;10386;54.314;10.022;2023-04-01T00:11:11;24.00;;;9.70;;
20454;SDS011;10386;54.314;10.022;2023-04-01T00:13:38;25.50;;;10.90;;
20454;SDS011;10386;54.314;10.022;2023-04-01T00:16:06;27.73;;;11.37;;
20454;SDS011;10386;54.314;10.022;2023-04-01T00:18:46;24.47;;;10.03;;
20454;SDS011;10386;54.314;10.022;2023-04-01T00:21:14;23.70;;;10.00;;
20454;SDS011;10386;54.314;10.022;2023-04-01T00:23:41;24.23;;;9.97;;
20454;SDS011;10386;54.314;10.022;2023-04-01T00:26:08;19.87;;;9.70;;
20454;SDS011;10386;54.314;10.022;2023-04-01T00:28:35;23.10;;;9.40;;
20454;SDS011;10386;54.314;10.022;2023-04-01T00:31:07;16.33;;;9.20;;
20454;SDS011;10386;54.314;10.022;2023-04-01T00:33:36;21.33;;;8.90;;
20454;SDS011;10386;54.314;10.022;2023-04-01T00:36:08;18.27;;;8.73;;
20454;SDS011;10386;54.314;10.022;2023-04-01T00:38:40;19.00;;;7.73;;
20454;SDS011;10386;54.314;10.022;2023-04-01T00:41:09;19.37;;;8.57;;
20454;SDS011;10386;54.314;10.022;2023-04-01T00:43:41;15.40;;;7.40;;
20454;SDS011;10386;54.314;10.022;2023-04-01T00:46:14;14.33;;;7.13;;
20454;SDS011;10386;54.314;10.022;2023-04-01T00:48:43;13.67;;;7.03;;
20454;SDS011;10386;54.314;10.022;2023-04-01T00:51:19;12.63;;;6.87;;
20454;SDS011;10386;54.314;10.022;2023-04-01T00:53:52;12.73;;;5.43;;
20454;SDS011;10386;54.314;10.022;2023-04-01T00:56:27;8.43;;;5.63;;
20454;SDS011;10386;54.314;10.022;2023-04-01T00:59:00;10.87;;;5.73;;
20454;SDS011;10386;54.314;10.022;2023-04-01T01:01:32;10.40;;;5.03;;
20454;SDS011;10386;54.314;10.022;2023-04-01T01:04:00;9.47;;;5.30;;
20454;SDS011;10386;54.314;10.022;2023-04-01T01:12:07;8.13;;;4.57;;
20454;SDS011;10386;54.314;10.022;2023-04-01T01:20:44;9.10;;;4.93;;
20454;SDS011;10386;54.314;10.022;2023-04-01T01:37:38;9.57;;;5.17;;
20454;SDS011;10386;54.314;10.022;2023-04-01T01:40:10;7.50;;;4.47;;
20454;SDS011;10386;54.314;10.022;2023-04-01T01:42:39;9.03;;;4.90;;
20454;SDS011;10386;54.314;10.022;2023-04-01T01:45:12;11.57;;;4.90;;
20454;SDS011;10386;54.314;10.022;2023-04-01T01:47:44;7.07;;;4.57;;
20454;SDS011;10386;54.314;10.022;2023-04-01T01:50:13;12.57;;;5.33;;
20454;SDS011;10386;54.314;10.022;2023-04-01T01:52:42;8.83;;;4.60;;
20454;SDS011;10386;54.314;10.022;2023-04-01T01:58:02;10.10;;;4.97;;
20454;SDS011;10386;54.314;10.022;2023-04-01T02:00:35;5.57;;;4.30;;
20454;SDS011;10386;54.314;10.022;2023-04-01T02:03:03;6.93;;;4.90;;
20454;SDS011;10386;54.314;10.022;2023-04-01T02:05:31;7.63;;;4.60;;
20454;SDS011;10386;54.314;10.022;2023-04-01T02:08:01;5.97;;;3.90;;
20454;SDS011;10386;54.314;10.022;2023-04-01T02:10:34;5.60;;;4.10;;
20454;SDS011;10386;54.314;10.022;2023-04-01T02:13:05;6.87;;;4.30;;
20454;SDS011;10386;54.314;10.022;2023-04-01T02:15:41;7.70;;;3.80;;
20454;SDS011;10386;54.314;10.022;2023-04-01T02:18:11;5.73;;;3.83;;
20454;SDS011;10386;54.314;10.022;2023-04-01T02:20:39;6.23;;;3.37;;
20454;SDS011;10386;54.314;10.022;2023-04-01T02:23:07;4.47;;;3.10;;
20454;SDS011;10386;54.314;10.022;2023-04-01T02:25:37;4.53;;;3.57;;
20454;SDS011;10386;54.314;10.022;2023-04-01T02:28:05;6.30;;;3.03;;
20454;SDS011;10386;54.314;10.022;2023-04-01T02:30:34;7.80;;;3.27;;
20454;SDS011;10386;54.314;10.022;2023-04-01T02:33:04;7.37;;;3.53;;
20454;SDS011;10386;54.314;10.022;2023-04-01T02:35:33;5.13;;;3.03;;
20454;SDS011;10386;54.314;10.022;2023-04-01T02:38:07;5.47;;;3.17;;
20454;SDS011;10386;54.314;10.022;2023-04-01T02:40:45;4.90;;;2.97;;
20454;SDS011;10386;54.314;10.022;2023-04-01T02:43:15;4.20;;;2.90;;
20454;SDS011;10386;54.314;10.022;2023-04-01T02:45:43;3.33;;;2.30;;
20454;SDS011;10386;54.314;10.022;2023-04-01T02:48:12;5.10;;;2.20;;
20454;SDS011;10386;54.314;10.022;2023-04-01T02:50:40;2.03;;;1.90;;
20454;SDS011;10386;54.314;10.022;2023-04-01T02:53:07;4.67;;;2.20;;
20454;SDS011;10386;54.314;10.022;2023-04-01T02:55:34;4.47;;;1.60;;
20454;SDS011;10386;54.314;10.022;2023-04-01T02:58:02;3.60;;;1.50;;
20454;SDS011;10386;54.314;10.022;2023-04-01T03:00:29;2.40;;;1.40;;
20454;SDS011;10386;54.314;10.022;2023-04-01T03:03:03;1.50;;;1.40;;
20454;SDS011;10386;54.314;10.022;2023-04-01T03:05:30;1.47;;;1.37;;
20454;SDS011;10386;54.314;10.022;2023-04-01T03:07:58;3.20;;;1.40;;
20454;SDS011;10386;54.314;10.022;2023-04-01T03:10:24;1.43;;;1.30;;
20454;SDS011;10386;54.314;10.022;2023-04-01T03:12:51;3.13;;;1.60;;
20454;SDS011;10386;54.314;10.022;2023-04-01T03:15:18;2.87;;;1.40;;
20454;SDS011;10386;54.314;10.022;2023-04-01T03:17:46;1.53;;;1.43;;
20454;SDS011;10386;54.314;10.022;2023-04-01T03:20:13;2.33;;;1.40;;
20454;SDS011;10386;54.314;10.022;2023-04-01T03:22:41;2.17;;;1.27;;
20454;SDS011;10386;54.314;10.022;2023-04-01T03:25:08;1.37;;;1.27;;
20454;SDS011;10386;54.314;10.022;2023-04-01T03:27:37;1.30;;;1.30;;
20454;SDS011;10386;54.314;10.022;2023-04-01T03:30:04;1.97;;;1.50;;
20454;SDS011;10386;54.314;10.022;2023-04-01T03:32:32;5.50;;;1.63;;
20454;SDS011;10386;54.314;10.022;2023-04-01T03:35:00;1.50;;;1.40;;
20454;SDS011;10386;54.314;10.022;2023-04-01T03:37:27;3.90;;;1.50;;
20454;SDS011;10386;54.314;10.022;2023-04-01T03:39:54;1.30;;;1.20;;
20454;SDS011;10386;54.314;10.022;2023-04-01T03:42:27;1.37;;;1.10;;
20454;SDS011;10386;54.314;10.022;2023-04-01T03:44:54;1.77;;;1.00;;
20454;SDS011;10386;54.314;10.022;2023-04-01T03:47:21;1.27;;;1.27;;
20454;SDS011;10386;54.314;10.022;2023-04-01T03:49:48;2.67;;;1.40;;
20454;SDS011;10386;54.314;10.022;2023-04-01T03:52:16;1.70;;;1.27;;
20454;SDS011;10386;54.314;10.022;2023-04-01T03:54:43;1.17;;;1.17;;
20454;SDS011;10386;54.314;10.022;2023-04-01T03:57:10;2.83;;;1.30;;
20454;SDS011;10386;54.314;10.022;2023-04-01T03:59:37;1.60;;;1.20;;
20454;SDS011;10386;54.314;10.022;2023-04-01T04:02:04;5.30;;;1.37;;
20454;SDS011;10386;54.314;10.022;2023-04-01T04:04:31;1.30;;;1.27;;
20454;SDS011;10386;54.314;10.022;2023-04-01T04:06:58;1.30;;;1.30;;
20454;SDS011;10386;54.314;10.022;2023-04-01T04:09:27;2.40;;;1.57;;
20454;SDS011;10386;54.314;10.022;2023-04-01T04:11:53;1.40;;;1.30;;
20454;SDS011;10386;54.314;10.022;2023-04-01T04:14:20;1.57;;;1.47;;
20454;SDS011;10386;54.314;10.022;2023-04-01T04:16:48;1.77;;;1.67;;
20454;SDS011;10386;54.314;10.022;2023-04-01T04:19:16;1.67;;;1.57;;
20454;SDS011;10386;54.314;10.022;2023-04-01T04:21:43;3.63;;;1.90;;
20454;SDS011;10386;54.314;10.022;2023-04-01T04:24:09;4.53;;;1.77;;
20454;SDS011;10386;54.314;10.022;2023-04-01T04:26:36;2.70;;;2.07;;
20454;SDS011;10386;54.314;10.022;2023-04-01T04:29:04;2.57;;;1.50;;
20454;SDS011;10386;54.314;10.022;2023-04-01T04:31:31;4.50;;;2.00;;
20454;SDS011;10386;54.314;10.022;2023-04-01T04:33:58;5.03;;;2.03;;
20454;SDS011;10386;54.314;10.022;2023-04-01T04:36:27;1.97;;;1.80;;
20454;SDS011;10386;54.314;10.022;2023-04-01T04:38:56;5.60;;;2.10;;
20454;SDS011;10386;54.314;10.022;2023-04-01T04:41:28;4.03;;;2.17;;
20454;SDS011;10386;54.314;10.022;2023-04-01T04:44:22;2.63;;;2.03;;
20454;SDS011;10386;54.314;10.022;2023-04-01T04:46:49;1.87;;;1.77;;
20454;SDS011;10386;54.314;10.022;2023-04-01T04:49:16;2.80;;;1.97;;
20454;SDS011;10386;54.314;10.022;2023-04-01T04:51:48;5.17;;;2.47;;
20454;SDS011;10386;54.314;10.022;2023-04-01T04:54:19;2.70;;;1.97;;
20454;SDS011;10386;54.314;10.022;2023-04-01T04:56:58;1.97;;;1.87;;
20454;SDS011;10386;54.314;10.022;2023-04-01T04:59:40;3.13;;;1.93;;
20454;SDS011;10386;54.314;10.022;2023-04-01T05:02:11;2.97;;;2.10;;
20454;SDS011;10386;54.314;10.022;2023-04-01T05:04:39;3.77;;;2.20;;
20454;SDS011;10386;54.314;10.022;2023-04-01T05:07:09;3.22;;;2.35;;
20454;SDS011;10386;54.314;10.022;2023-04-01T05:09:36;4.57;;;2.07;;
20454;SDS011;10386;54.314;10.022;2023-04-01T05:12:07;2.70;;;1.47;;
20454;SDS011;10386;54.314;10.022;2023-04-01T05:14:37;7.13;;;2.00;;
20454;SDS011;10386;54.314;10.022;2023-04-01T05:17:05;4.03;;;2.63;;
20454;SDS011;10386;54.314;10.022;2023-04-01T05:19:37;5.27;;;2.00;;
20454;SDS011;10386;54.314;10.022;2023-04-01T05:22:05;5.67;;;1.77;;
20454;SDS011;10386;54.314;10.022;2023-04-01T05:24:32;4.97;;;1.80;;
20454;SDS011;10386;54.314;10.022;2023-04-01T05:26:59;2.10;;;1.60;;
20454;SDS011;10386;54.314;10.022;2023-04-01T05:29:33;1.90;;;1.80;;
20454;SDS011;10386;54.314;10.022;2023-04-01T05:32:01;2.10;;;1.53;;
20454;SDS011;10386;54.314;10.022;2023-04-01T05:34:29;2.43;;;1.47;;
20454;SDS011;10386;54.314;10.022;2023-04-01T05:36:56;4.23;;;1.67;;
20454;SDS011;10386;54.314;10.022;2023-04-01T05:39:31;3.73;;;1.60;;
20454;SDS011;10386;54.314;10.022;2023-04-01T05:42:09;1.80;;;1.70;;
20454;SDS011;10386;54.314;10.022;2023-04-01T05:44:36;2.93;;;1.80;;
20454;SDS011;10386;54.314;10.022;2023-04-01T05:47:03;1.77;;;1.67;;
20454;SDS011;10386;54.314;10.022;2023-04-01T05:49:31;1.90;;;1.70;;
20454;SDS011;10386;54.314;10.022;2023-04-01T05:51:59;2.53;;;2.00;;
20454;SDS011;10386;54.314;10.022;2023-04-01T05:54:26;1.90;;;1.80;;
20454;SDS011;10386;54.314;10.022;2023-04-01T05:56:54;2.33;;;2.10;;
20454;SDS011;10386;54.314;10.022;2023-04-01T05:59:21;5.70;;;2.23;;
20454;SDS011;10386;54.314;10.022;2023-04-01T06:01:48;2.40;;;2.00;;
20454;SDS011;10386;54.314;10.022;2023-04-01T06:04:15;5.27;;;2.20;;
20454;SDS011;10386;54.314;10.022;2023-04-01T06:06:44;3.20;;;1.90;;
20454;SDS011;10386;54.314;10.022;2023-04-01T06:09:32;3.23;;;1.87;;
20454;SDS011;10386;54.314;10.022;2023-04-01T06:29:00;4.20;;;2.37;;
20454;SDS011;10386;54.314;10.022;2023-04-01T06:37:24;5.17;;;2.10;;
20454;SDS011;10386;54.314;10.022;2023-04-01T06:45:57;2.17;;;1.70;;
20454;SDS011;10386;54.314;10.022;2023-04-01T06:48:56;5.27;;;1.87;;
20454;SDS011;10386;54.314;10.022;2023-04-01T06:56:32;3.20;;;1.70;;
20454;SDS011;10386;54.314;10.022;2023-04-01T06:59:19;6.27;;;2.10;;
20454;SDS011;10386;54.314;10.022;2023-04-01T07:01:55;2.13;;;1.93;;
20454;SDS011;10386;54.314;10.022;2023-04-01T07:04:28;4.60;;;1.83;;
20454;SDS011;10386;54.314;10.022;2023-04-01T07:07:01;2.97;;;1.80;;
20454;SDS011;10386;54.314;10.022;2023-04-01T07:09:34;4.77;;;1.90;;
20454;SDS011;10386;54.314;10.022;2023-04-01T07:12:09;3.03;;;2.10;;
20454;SDS011;10386;54.314;10.022;2023-04-01T07:14:41;2.70;;;2.50;;
20454;SDS011;10386;54.314;10.022;2023-04-01T07:17:12;3.53;;;2.27;;
20454;SDS011;10386;54.314;10.022;2023-04-01T07:25:17;7.37;;;2.37;;
20454;SDS011;10386;54.314;10.022;2023-04-01T07:27:48;3.77;;;2.20;;
20454;SDS011;10386;54.314;10.022;2023-04-01T07:30:17;2.17;;;1.90;;
20454;SDS011;10386;54.314;10.022;2023-04-01T07:32:59;3.63;;;1.93;;
20454;SDS011;10386;54.314;10.022;2023-04-01T07:38:30;5.40;;;2.13;;
20454;SDS011;10386;54.314;10.022;2023-04-01T07:41:23;3.20;;;1.87;;
20454;SDS011;10386;54.314;10.022;2023-04-01T07:44:03;2.53;;;1.87;;
20454;SDS011;10386;54.314;10.022;2023-04-01T07:47:00;3.70;;;1.90;;
20454;SDS011;10386;54.314;10.022;2023-04-01T07:49:58;3.27;;;1.93;;
20454;SDS011;10386;54.314;10.022;2023-04-01T07:55:49;5.80;;;2.17;;
20454;SDS011;10386;54.314;10.022;2023-04-01T08:03:48;4.40;;;2.07;;
20454;SDS011;10386;54.314;10.022;2023-04-01T08:06:24;5.83;;;2.17;;
20454;SDS011;10386;54.314;10.022;2023-04-01T08:14:48;3.43;;;2.40;;
20454;SDS011;10386;54.314;10.022;2023-04-01T08:22:57;6.10;;;2.60;;
20454;SDS011;10386;54.314;10.022;2023-04-01T08:25:30;5.43;;;2.17;;
20454;SDS011;10386;54.314;10.022;2023-04-01T08:28:03;4.33;;;2.50;;
20454;SDS011;10386;54.314;10.022;2023-04-01T08:30:46;8.37;;;2.43;;
20454;SDS011;10386;54.314;10.022;2023-04-01T08:33:27;4.73;;;2.60;;
20454;SDS011;10386;54.314;10.022;2023-04-01T08:36:02;8.53;;;3.10;;
20454;SDS011;10386;54.314;10.022;2023-04-01T08:53:14;8.63;;;3.83;;
20454;SDS011;10386;54.314;10.022;2023-04-01T08:55:53;9.27;;;3.60;;
20454;SDS011;10386;54.314;10.022;2023-04-01T09:40:15;5.90;;;4.60;;
20454;SDS011;10386;54.314;10.022;2023-04-01T09:43:11;14.93;;;5.10;;
20454;SDS011;10386;54.314;10.022;2023-04-01T09:45:46;12.67;;;4.77;;
20454;SDS011;10386;54.314;10.022;2023-04-01T10:36:47;16.87;;;6.47;;
20454;SDS011;10386;54.314;10.022;2023-04-01T10:44:56;11.87;;;6.10;;
20454;SDS011;10386;54.314;10.022;2023-04-01T11:07:36;10.13;;;5.47;;
20454;SDS011;10386;54.314;10.022;2023-04-01T11:15:30;12.63;;;5.93;;
20454;SDS011;10386;54.314;10.022;2023-04-01T11:24:46;15.77;;;6.77;;
20454;SDS011;10386;54.314;10.022;2023-04-01T11:27:50;24.13;;;6.70;;
20454;SDS011;10386;54.314;10.022;2023-04-01T11:36:20;16.47;;;6.10;;
20454;SDS011;10386;54.314;10.022;2023-04-01T11:41:46;13.23;;;5.63;;
20454;SDS011;10386;54.314;10.022;2023-04-01T11:44:26;14.90;;;5.63;;
20454;SDS011;10386;54.314;10.022;2023-04-01T11:49:49;10.83;;;4.90;;
20454;SDS011;10386;54.314;10.022;2023-04-01T11:58:18;6.20;;;4.03;;
20454;SDS011;10386;54.314;10.022;2023-04-01T12:03:46;9.90;;;4.50;;
20454;SDS011;10386;54.314;10.022;2023-04-01T12:06:34;11.90;;;4.13;;
20454;SDS011;10386;54.314;10.022;2023-04-01T12:09:23;15.10;;;5.77;;
20454;SDS011;10386;54.314;10.022;2023-04-01T12:20:49;8.30;;;3.97;;
20454;SDS011;10386;54.314;10.022;2023-04-01T12:26:33;14.10;;;4.63;;
20454;SDS011;10386;54.314;10.022;2023-04-01T12:32:12;13.97;;;4.20;;
20454;SDS011;10386;54.314;10.022;2023-04-01T12:37:35;11.27;;;4.10;;
20454;SDS011;10386;54.314;10.022;2023-04-01T12:42:53;6.17;;;3.50;;
20454;SDS011;10386;54.314;10.022;2023-04-01T12:45:32;10.33;;;4.07;;
20454;SDS011;10386;54.314;10.022;2023-04-01T12:51:12;8.87;;;3.70;;
20454;SDS011;10386;54.314;10.022;2023-04-01T12:59:37;9.37;;;3.80;;
20454;SDS011;10386;54.314;10.022;2023-04-01T13:04:55;11.70;;;4.17;;
20454;SDS011;10386;54.314;10.022;2023-04-01T13:15:37;9.47;;;4.30;;
20454;SDS011;10386;54.314;10.022;2023-04-01T13:18:39;20.03;;;4.60;;
20454;SDS011;10386;54.314;10.022;2023-04-01T13:27:13;8.33;;;3.40;;
20454;SDS011;10386;54.314;10.022;2023-04-01T13:33:01;8.27;;;4.07;;
20454;SDS011;10386;54.314;10.022;2023-04-01T13:41:29;5.70;;;3.73;;
20454;SDS011;10386;54.314;10.022;2023-04-01T13:44:29;5.37;;;3.03;;
20454;SDS011;10386;54.314;10.022;2023-04-01T13:55:49;8.20;;;3.40;;
20454;SDS011;10386;54.314;10.022;2023-04-01T14:12:00;10.40;;;3.13;;
20454;SDS011;10386;54.314;10.022;2023-04-01T14:39:38;13.20;;;3.40;;
20454;SDS011;10386;54.314;10.022;2023-04-01T14:50:41;9.27;;;2.60;;
20454;SDS011;10386;54.314;10.022;2023-04-01T14:58:22;8.00;;;2.77;;
20454;SDS011;10386;54.314;10.022;2023-04-01T15:01:12;12.53;;;2.50;;
20454;SDS011;10386;54.314;10.022;2023-04-01T15:03:52;6.47;;;2.30;;
20454;SDS011;10386;54.314;10.022;2023-04-01T15:12:40;12.23;;;3.30;;
20454;SDS011;10386;54.314;10.022;2023-04-01T15:21:09;11.03;;;4.13;;
20454;SDS011;10386;54.314;10.022;2023-04-01T15:32:27;10.10;;;2.77;;
20454;SDS011;10386;54.314;10.022;2023-04-01T15:37:58;6.37;;;2.70;;
20454;SDS011;10386;54.314;10.022;2023-04-01T15:40:46;7.57;;;2.20;;
20454;SDS011;10386;54.314;10.022;2023-04-01T15:43:41;5.53;;;2.33;;
20454;SDS011;10386;54.314;10.022;2023-04-01T15:52:16;11.43;;;2.63;;
20454;SDS011;10386;54.314;10.022;2023-04-01T16:01:10;5.03;;;2.60;;
20454;SDS011;10386;54.314;10.022;2023-04-01T16:03:54;4.43;;;2.03;;
20454;SDS011;10386;54.314;10.022;2023-04-01T16:20:18;5.93;;;3.00;;
20454;SDS011;10386;54.314;10.022;2023-04-01T16:25:21;7.77;;;2.80;;
20454;SDS011;10386;54.314;10.022;2023-04-01T16:30:47;7.37;;;3.00;;
20454;SDS011;10386;54.314;10.022;2023-04-01T16:35:58;13.93;;;3.80;;
20454;SDS011;10386;54.314;10.022;2023-04-01T16:38:36;7.47;;;2.70;;
20454;SDS011;10386;54.314;10.022;2023-04-01T16:43:52;7.13;;;2.73;;
20454;SDS011;10386;54.314;10.022;2023-04-01T16:46:28;10.90;;;2.80;;
20454;SDS011;10386;54.314;10.022;2023-04-01T16:56:52;7.70;;;2.43;;
20454;SDS011;10386;54.314;10.022;2023-04-01T16:59:24;3.20;;;2.03;;
20454;SDS011;10386;54.314;10.022;2023-04-01T17:02:30;2.37;;;1.77;;
20454;SDS011;10386;54.314;10.022;2023-04-01T17:10:14;10.87;;;3.50;;
20454;SDS011;10386;54.314;10.022;2023-04-01T17:21:49;4.90;;;2.80;;
20454;SDS011;10386;54.314;10.022;2023-04-01T17:35:27;8.17;;;2.43;;
20454;SDS011;10386;54.314;10.022;2023-04-01T17:47:18;6.50;;;2.30;;
20454;SDS011;10386;54.314;10.022;2023-04-01T17:52:38;9.20;;;2.23;;
20454;SDS011;10386;54.314;10.022;2023-04-01T17:58:08;5.60;;;2.33;;
20454;SDS011;10386;54.314;10.022;2023-04-01T18:03:54;5.47;;;2.30;;
20454;SDS011;10386;54.314;10.022;2023-04-01T18:20:30;5.97;;;2.47;;
20454;SDS011;10386;54.314;10.022;2023-04-01T18:23:27;4.20;;;2.03;;
20454;SDS011;10386;54.314;10.022;2023-04-01T18:26:07;6.53;;;1.83;;
20454;SDS011;10386;54.314;10.022;2023-04-01T18:28:41;12.77;;;2.90;;
20454;SDS011;10386;54.314;10.022;2023-04-01T18:31:19;3.23;;;2.10;;
20454;SDS011;10386;54.314;10.022;2023-04-01T18:36:21;5.60;;;2.20;;
20454;SDS011;10386;54.314;10.022;2023-04-01T18:38:54;10.57;;;2.80;;
20454;SDS011;10386;54.314;10.022;2023-04-01T18:41:28;5.87;;;2.37;;
20454;SDS011;10386;54.314;10.022;2023-04-01T18:46:59;8.30;;;2.13;;
20454;SDS011;10386;54.314;10.022;2023-04-01T18:49:42;5.23;;;2.03;;
20454;SDS011;10386;54.314;10.022;2023-04-01T18:52:23;6.00;;;2.50;;
20454;SDS011;10386;54.314;10.022;2023-04-01T18:57:51;5.57;;;2.40;;
20454;SDS011;10386;54.314;10.022;2023-04-01T19:02:57;5.50;;;2.30;;
20454;SDS011;10386;54.314;10.022;2023-04-01T19:05:33;5.23;;;2.80;;
20454;SDS011;10386;54.314;10.022;2023-04-01T19:33:30;4.07;;;2.03;;
20454;SDS011;10386;54.314;10.022;2023-04-01T19:42:24;4.33;;;2.20;;
20454;SDS011;10386;54.314;10.022;2023-04-01T19:45:00;5.73;;;2.27;;
20454;SDS011;10386;54.314;10.022;2023-04-01T19:50:39;7.53;;;2.27;;
20454;SDS011;10386;54.314;10.022;2023-04-01T19:53:15;7.33;;;1.87;;
20454;SDS011;10386;54.314;10.022;2023-04-01T19:55:58;3.83;;;2.00;;
20454;SDS011;10386;54.314;10.022;2023-04-01T19:58:41;5.30;;;2.27;;
20454;SDS011;10386;54.314;10.022;2023-04-01T20:01:11;5.83;;;2.03;;
20454;SDS011;10386;54.314;10.022;2023-04-01T20:04:13;5.43;;;2.00;;
20454;SDS011;10386;54.314;10.022;2023-04-01T20:07:49;5.87;;;1.90;;
20454;SDS011;10386;54.314;10.022;2023-04-01T20:12:33;5.70;;;2.20;;
20454;SDS011;10386;54.314;10.022;2023-04-01T20:15:57;4.80;;;2.40;;
20454;SDS011;10386;54.314;10.022;2023-04-01T20:18:11;4.80;;;2.53;;
20454;SDS011;10386;54.314;10.022;2023-04-01T20:20:51;10.47;;;2.60;;
20454;SDS011;10386;54.314;10.022;2023-04-01T20:26:12;10.50;;;2.70;;
20454;SDS011;10386;54.314;10.022;2023-04-01T20:28:44;4.57;;;2.00;;
20454;SDS011;10386;54.314;10.022;2023-04-01T20:31:25;9.83;;;2.13;;
20454;SDS011;10386;54.314;10.022;2023-04-01T20:42:47;3.60;;;2.20;;
20454;SDS011;10386;54.314;10.022;2023-04-01T20:51:22;6.90;;;1.93;;
20454;SDS011;10386;54.314;10.022;2023-04-01T21:02:20;9.67;;;2.30;;
20454;SDS011;10386;54.314;10.022;2023-04-01T21:05:26;6.33;;;1.93;;
20454;SDS011;10386;54.314;10.022;2023-04-01T21:07:47;9.00;;;1.97;;
20454;SDS011;10386;54.314;10.022;2023-04-01T21:10:33;6.33;;;2.20;;
20454;SDS011;10386;54.314;10.022;2023-04-01T21:13:14;10.00;;;2.30;;
20454;SDS011;10386;54.314;10.022;2023-04-01T21:16:01;10.40;;;2.33;;
20454;SDS011;10386;54.314;10.022;2023-04-01T21:22:04;8.27;;;2.17;;
20454;SDS011;10386;54.314;10.022;2023-04-01T21:30:24;6.80;;;2.27;;
20454;SDS011;10386;54.314;10.022;2023-04-01T21:44:50;4.37;;;1.40;;
20454;SDS011;10386;54.314;10.022;2023-04-01T21:47:35;7.00;;;2.13;;
20454;SDS011;10386;54.314;10.022;2023-04-01T21:50:14;7.17;;;1.90;;
20454;SDS011;10386;54.314;10.022;2023-04-01T22:01:25;5.90;;;1.90;;
20454;SDS011;10386;54.314;10.022;2023-04-01T22:09:16;3.43;;;2.13;;
20454;SDS011;10386;54.314;10.022;2023-04-01T22:11:49;9.53;;;1.90;;
20454;SDS011;10386;54.314;10.022;2023-04-01T22:17:10;3.57;;;2.00;;
20454;SDS011;10386;54.314;10.022;2023-04-01T22:19:59;7.73;;;2.53;;
20454;SDS011;10386;54.314;10.022;2023-04-01T22:31:05;7.03;;;2.43;;
20454;SDS011;10386;54.314;10.022;2023-04-01T22:36:40;5.47;;;2.10;;
20454;SDS011;10386;54.314;10.022;2023-04-01T22:47:52;4.87;;;1.80;;
20454;SDS011;10386;54.314;10.022;2023-04-01T22:50:30;3.53;;;1.60;;
20454;SDS011;10386;54.314;10.022;2023-04-01T22:53:27;4.87;;;1.77;;
20454;SDS011;10386;54.314;10.022;2023-04-01T22:56:11;2.77;;;1.70;;
20454;SDS011;10386;54.314;10.022;2023-04-01T22:58:46;3.67;;;1.50;;
20454;SDS011;10386;54.314;10.022;2023-04-01T23:01:22;5.53;;;1.80;;
20454;SDS011;10386;54.314;10.022;2023-04-01T23:03:53;6.73;;;2.00;;
20454;SDS011;10386;54.314;10.022;2023-04-01T23:06:35;3.67;;;2.00;;
20454;SDS011;10386;54.314;10.022;2023-04-01T23:09:11;3.00;;;1.40;;
20454;SDS011;10386;54.314;10.022;2023-04-01T23:12:08;3.47;;;1.77;;
20454;SDS011;10386;54.314;10.022;2023-04-01T23:14:41;2.83;;;1.70;;
20454;SDS011;10386;54.314;10.022;2023-04-01T23:28:13;2.67;;;1.33;;
20454;SDS011;10386;54.314;10.022;2023-04-01T23:35:56;6.50;;;1.30;;
20454;SDS011;10386;54.314;10.022;2023-04-01T23:38:33;8.83;;;1.70;;
20454;SDS011;10386;54.314;10.022;2023-04-01T23:41:02;4.90;;;2.13;;
20454;SDS011;10386;54.314;10.022;2023-04-01T23:43:31;5.37;;;1.57;;
20454;SDS011;10386;54.314;10.022;2023-04-01T23:46:05;1.97;;;1.23;;
20454;SDS011;10386;54.314;10.022;2023-04-01T23:48:37;3.53;;;1.40;;
20454;SDS011;10386;54.314;10.022;2023-04-01T23:51:10;2.83;;;1.30;;
20454;SDS011;10386;54.314;10.022;2023-04-01T23:54:01;2.97;;;1.17;;
20454;SDS011;10386;54.314;10.022;2023-04-01T23:56:34;7.37;;;1.43;;
20454;SDS011;10386;54.314;10.022;2023-04-01T23:59:04;1.77;;;1.37;;
